Time;durP1;ratioP1;P1;durP2;ratioP2;P2;SDS_P1;SDS_P2;PMS_P1;PMS_P2;Temp;Humidity;BMP_temperature;BMP_pressure;BME280_temperature;BME280_humidity;BME280_pressure;Samples;Min_cycle;Max_cycle;Signal;HPM_P1;HPM_P2
2023/10/02 00:01:51;;;;;;;12.85;7.38;;;;;;;14.87;68.42;94563.31;5147173;27;20037;-85
2023/10/02 00:04:23;;;;;;;14.30;7.15;;;;;;;14.90;67.92;94559.19;5147117;27;20019;-85
2023/10/02 00:07:05;;;;;;;15.73;6.75;;;;;;;14.91;67.87;94566.94;5129246;27;20034;-85
2023/10/02 00:09:38;;;;;;;12.45;6.68;;;;;;;14.92;67.73;94568.53;5147384;27;20040;-86
2023/10/02 00:12:14;;;;;;;12.25;6.47;;;;;;;14.94;66.96;94560.13;5147094;27;20039;-86
2023/10/02 00:14:41;;;;;;;9.80;5.75;;;;;;;14.93;66.77;94553.97;5147637;27;20031;-86
2023/10/02 00:17:18;;;;;;;17.48;6.00;;;;;;;14.93;66.26;94564.72;5147395;27;20403;-86
2023/10/02 00:19:49;;;;;;;12.52;6.18;;;;;;;14.91;66.27;94561.56;5147242;27;20090;-86
2023/10/02 00:22:34;;;;;;;16.40;5.75;;;;;;;14.97;66.29;94570.22;5128892;27;20030;-86
2023/10/02 00:25:08;;;;;;;16.23;7.03;;;;;;;14.99;65.72;94568.78;5129062;27;20042;-87
2023/10/02 00:27:37;;;;;;;12.25;5.80;;;;;;;14.93;65.83;94562.03;5128935;27;20026;-86
2023/10/02 00:30:07;;;;;;;16.70;5.28;;;;;;;14.94;65.58;94566.31;5128902;27;20046;-86
2023/10/02 00:32:34;;;;;;;14.65;5.38;;;;;;;14.96;65.39;94558.72;5146952;27;20064;-86
2023/10/02 00:35:30;;;;;;;9.10;5.00;;;;;;;14.93;65.44;94559.34;5146614;27;20374;-85
2023/10/02 00:37:57;;;;;;;14.90;5.22;;;;;;;14.93;65.63;94548.63;5125926;27;20035;-85
2023/10/02 00:40:26;;;;;;;12.80;5.05;;;;;;;14.94;65.21;94552.88;5145552;27;20122;-87
2023/10/02 00:43:35;;;;;;;9.27;4.95;;;;;;;14.95;65.30;94551.75;5127263;27;20334;-83
2023/10/02 00:46:00;;;;;;;10.77;4.25;;;;;;;15.01;65.19;94555.84;5141479;27;20031;-84
2023/10/02 00:48:30;;;;;;;12.23;5.43;;;;;;;14.98;65.00;94548.44;5146623;27;20019;-85
2023/10/02 00:51:00;;;;;;;13.02;5.45;;;;;;;14.97;64.90;94554.91;5127538;28;20048;-84
2023/10/02 00:53:38;;;;;;;10.13;4.65;;;;;;;14.92;65.03;94552.41;5147253;27;20026;-85
2023/10/02 00:56:28;;;;;;;14.75;5.55;;;;;;;14.91;65.42;94544.69;5148111;27;20072;-84
2023/10/02 00:59:00;;;;;;;10.05;5.20;;;;;;;14.87;65.17;94549.13;5146462;27;20106;-84
2023/10/02 01:01:31;;;;;;;12.65;5.10;;;;;;;14.81;65.36;94553.88;5147227;27;20023;-86
2023/10/02 01:04:11;;;;;;;15.85;4.53;;;;;;;14.83;65.11;94560.50;5147161;27;20060;-87
2023/10/02 01:09:25;;;;;;;9.73;5.18;;;;;;;14.81;64.94;94535.88;5147669;27;20026;-85
2023/10/02 01:11:56;;;;;;;9.70;5.10;;;;;;;14.81;65.02;94540.47;5147009;27;20043;-85
2023/10/02 01:14:40;;;;;;;17.98;4.97;;;;;;;14.83;64.76;94539.03;5146638;27;20027;-86
2023/10/02 01:17:07;;;;;;;9.23;5.03;;;;;;;14.90;64.53;94543.91;5146385;27;20019;-84
2023/10/02 01:19:52;;;;;;;10.15;5.15;;;;;;;14.89;64.61;94546.91;5146018;27;20039;-85
2023/10/02 01:22:26;;;;;;;9.80;5.75;;;;;;;14.83;64.70;94540.94;5145809;27;20197;-85
2023/10/02 01:25:29;;;;;;;10.10;5.07;;;;;;;14.79;64.63;94540.00;5145857;27;20068;-85
2023/10/02 01:27:51;;;;;;;13.80;5.65;;;;;;;14.78;64.09;94536.53;5143735;27;20031;-85
2023/10/02 01:30:21;;;;;;;11.48;4.85;;;;;;;14.73;64.11;94530.56;5145548;27;20020;-86
2023/10/02 01:33:06;;;;;;;10.27;5.20;;;;;;;14.69;64.27;94538.47;5145791;27;20018;-84
2023/10/02 01:35:33;;;;;;;8.02;5.05;;;;;;;14.62;64.34;94533.59;5145458;27;20046;-84
2023/10/02 01:37:59;;;;;;;9.88;4.40;;;;;;;14.63;64.26;94540.56;5145407;27;20030;-84
2023/10/02 01:40:33;;;;;;;10.52;5.10;;;;;;;14.64;64.13;94544.00;5145788;27;20023;-84
2023/10/02 01:43:11;;;;;;;15.15;4.40;;;;;;;14.59;64.36;94534.25;5145570;27;20064;-84
2023/10/02 01:45:43;;;;;;;12.95;5.28;;;;;;;14.50;64.67;94536.13;5127164;27;20042;-85
2023/10/02 01:48:36;;;;;;;11.00;5.32;;;;;;;14.53;64.54;94532.03;5145446;27;20019;-84
2023/10/02 01:51:20;;;;;;;13.88;5.78;;;;;;;14.44;64.95;94537.41;5127064;27;20072;-85
2023/10/02 01:54:04;;;;;;;9.93;5.03;;;;;;;14.40;64.59;94548.00;5144998;27;20040;-85
2023/10/02 01:56:32;;;;;;;11.43;4.93;;;;;;;14.34;64.38;94548.50;5144971;27;20023;-84
2023/10/02 01:59:19;;;;;;;14.05;5.32;;;;;;;14.33;64.03;94555.75;5143886;27;20019;-84
2023/10/02 02:01:51;;;;;;;11.45;4.35;;;;;;;14.27;63.98;94549.00;5145225;27;20023;-84
2023/10/02 02:04:28;;;;;;;10.30;4.35;;;;;;;14.22;64.09;94543.78;5126763;27;20056;-83
2023/10/02 02:06:56;;;;;;;15.85;4.47;;;;;;;14.18;64.13;94551.66;5145373;27;20035;-84
2023/10/02 02:09:27;;;;;;;23.52;7.05;;;;;;;14.14;64.37;94549.94;5145145;27;20045;-84
2023/10/02 02:12:13;;;;;;;10.75;5.35;;;;;;;14.09;64.27;94550.13;5140420;27;20272;-84
2023/10/02 02:14:50;;;;;;;7.85;4.20;;;;;;;14.06;64.86;94554.22;5124348;28;20073;-84
2023/10/02 02:17:23;;;;;;;7.55;3.95;;;;;;;14.06;64.29;94551.53;5124146;28;20015;-84
2023/10/02 02:19:49;;;;;;;11.90;5.63;;;;;;;13.96;64.42;94550.00;5122879;28;20027;-84
2023/10/02 02:22:26;;;;;;;10.10;4.35;;;;;;;13.92;64.15;94561.63;5124029;28;20361;-83
2023/10/02 02:24:58;;;;;;;13.60;4.40;;;;;;;13.91;63.86;94549.38;5124499;28;20030;-85
2023/10/02 02:27:24;;;;;;;15.05;4.07;;;;;;;13.91;63.17;94547.47;5124060;28;20284;-85
2023/10/02 02:29:54;;;;;;;15.18;4.05;;;;;;;13.89;62.73;94560.38;5125106;28;20020;-85
2023/10/02 02:32:36;;;;;;;14.95;4.50;;;;;;;13.83;61.71;94550.94;5123640;28;20027;-85
2023/10/02 02:35:09;;;;;;;9.35;4.35;;;;;;;13.80;61.81;94560.41;5124571;28;20330;-86
2023/10/02 02:37:35;;;;;;;8.45;3.47;;;;;;;13.76;60.41;94556.78;5124075;28;20027;-86
2023/10/02 02:40:22;;;;;;;13.32;4.40;;;;;;;13.78;60.67;94553.75;5124520;28;20416;-87
2023/10/02 02:42:51;;;;;;;11.75;4.63;;;;;;;13.75;60.31;94557.09;5124081;28;20231;-86
2023/10/02 02:45:29;;;;;;;9.00;3.65;;;;;;;13.74;59.50;94561.66;5122993;28;20042;-87
2023/10/02 02:47:57;;;;;;;10.77;4.20;;;;;;;13.74;59.57;94561.66;5124299;28;20023;-86
2023/10/02 02:50:28;;;;;;;10.32;4.07;;;;;;;13.69;59.12;94553.78;5123844;28;20310;-86
2023/10/02 02:55:38;;;;;;;10.85;3.95;;;;;;;13.66;58.02;94565.13;5124025;28;20047;-86
2023/10/02 02:58:03;;;;;;;7.35;3.08;;;;;;;13.60;57.44;94558.34;5124319;28;20338;-88
2023/10/02 03:00:31;;;;;;;11.00;3.97;;;;;;;13.64;57.26;94548.59;5123458;28;20314;-87
2023/10/02 03:03:00;;;;;;;12.57;4.57;;;;;;;13.64;57.38;94561.97;5124447;28;20024;-87
2023/10/02 03:05:38;;;;;;;10.80;3.80;;;;;;;13.61;57.26;94566.06;5122762;28;20016;-87
2023/10/02 03:08:05;;;;;;;8.30;3.58;;;;;;;13.58;56.04;94555.19;5123238;28;20019;-87
2023/10/02 03:10:36;;;;;;;15.27;4.13;;;;;;;13.62;55.98;94551.56;5125770;28;20039;-86
2023/10/02 03:13:03;;;;;;;11.93;4.20;;;;;;;13.62;55.71;94550.78;5126614;28;20221;-87
2023/10/02 03:15:47;;;;;;;10.45;3.88;;;;;;;13.57;55.61;94553.63;5146918;27;20091;-87
2023/10/02 03:18:23;;;;;;;10.23;3.90;;;;;;;13.54;55.45;94557.72;5149061;27;20026;-87
2023/10/02 03:23:34;;;;;;;8.68;4.05;;;;;;;13.51;55.32;94538.81;5149660;27;20019;-86
2023/10/02 03:25:59;;;;;;;11.68;3.45;;;;;;;13.53;55.76;94549.97;5149373;27;20023;-86
2023/10/02 03:28:27;;;;;;;8.85;3.70;;;;;;;13.49;55.74;94543.69;5150344;27;20038;-88
2023/10/02 03:30:54;;;;;;;11.50;3.75;;;;;;;13.44;55.75;94545.41;5149746;27;20026;-87
2023/10/02 03:33:22;;;;;;;9.18;3.97;;;;;;;13.43;55.70;94546.53;5132192;27;20019;-88
2023/10/02 03:38:33;;;;;;;12.95;4.18;;;;;;;13.35;54.96;94557.22;5151694;27;20094;-87
2023/10/02 03:41:01;;;;;;;12.90;3.58;;;;;;;13.40;54.94;94555.19;5133322;27;20034;-88
2023/10/02 03:44:01;;;;;;;12.23;3.63;;;;;;;13.39;54.92;94545.59;5151163;27;20325;-88
2023/10/02 03:46:35;;;;;;;10.93;4.25;;;;;;;13.39;54.83;94553.63;5146822;27;20102;-89
2023/10/02 03:49:03;;;;;;;11.95;4.28;;;;;;;13.37;54.93;94558.50;5133722;27;20027;-88
2023/10/02 03:51:36;;;;;;;9.07;3.90;;;;;;;13.39;54.64;94542.91;5150401;27;20039;-88
2023/10/02 03:54:17;;;;;;;14.38;4.38;;;;;;;13.39;54.69;94553.63;5149298;27;20046;-88
2023/10/02 03:57:07;;;;;;;11.57;3.20;;;;;;;13.39;53.95;94561.66;5149193;27;20023;-88
2023/10/02 03:59:32;;;;;;;11.02;4.35;;;;;;;13.42;53.28;94557.53;5149870;27;20026;-86
2023/10/02 04:04:43;;;;;;;8.65;3.65;;;;;;;13.48;52.93;94556.28;5148302;27;20374;-85
2023/10/02 04:07:11;;;;;;;9.85;3.53;;;;;;;13.46;53.24;94563.84;5148487;27;20015;-85
2023/10/02 04:09:36;;;;;;;9.10;3.40;;;;;;;13.48;53.18;94558.97;5129392;27;20023;-85
2023/10/02 04:12:06;;;;;;;10.55;3.33;;;;;;;13.49;53.43;94565.09;5128841;27;20043;-86
2023/10/02 04:14:33;;;;;;;5.35;3.10;;;;;;;13.52;53.46;94572.53;5148597;27;20089;-86
2023/10/02 04:19:36;;;;;;;8.02;3.42;;;;;;;13.43;53.52;94575.19;5148662;27;20098;-87
2023/10/02 04:22:06;;;;;;;11.32;3.95;;;;;;;13.36;53.82;94588.25;5129516;27;20143;-86
2023/10/02 04:24:51;;;;;;;7.80;2.95;;;;;;;13.33;54.15;94587.00;5147009;27;20019;-86
2023/10/02 04:27:22;;;;;;;9.85;3.65;;;;;;;13.36;54.24;94580.22;5145745;27;20049;-85
2023/10/02 04:32:34;;;;;;;14.13;3.78;;;;;;;13.34;54.88;94593.91;5146563;27;20155;-85
2023/10/02 04:35:02;;;;;;;9.95;2.60;;;;;;;13.27;54.84;94601.59;5146673;27;20023;-86
2023/10/02 04:37:36;;;;;;;8.75;3.00;;;;;;;13.26;54.73;94594.66;5147079;27;20302;-86
2023/10/02 04:45:25;;;;;;;12.43;3.50;;;;;;;13.27;54.95;94598.91;5146849;27;20042;-86
2023/10/02 04:47:55;;;;;;;5.90;2.70;;;;;;;13.27;55.14;94604.28;5146374;27;20019;-86
2023/10/02 04:56:07;;;;;;;10.35;3.28;;;;;;;13.28;54.79;94605.06;5089691;27;20533;-83
2023/10/02 04:58:49;;;;;;;9.65;3.55;;;;;;;13.27;54.85;94612.31;5146031;27;20030;-83
2023/10/02 05:03:54;;;;;;;9.68;3.38;;;;;;;13.27;54.64;94609.63;5146184;27;20011;-85
2023/10/02 05:11:55;;;;;;;8.07;3.20;;;;;;;13.36;54.53;94607.00;5145913;27;20043;-85
2023/10/02 05:14:28;;;;;;;10.73;3.28;;;;;;;13.37;54.43;94611.22;5145549;27;20086;-84
2023/10/02 05:20:00;;;;;;;7.68;2.53;;;;;;;13.35;54.27;94608.88;5103942;27;20031;-85
2023/10/02 05:22:28;;;;;;;16.45;3.60;;;;;;;13.36;53.92;94602.41;5145769;27;20086;-84
2023/10/02 05:25:04;;;;;;;7.93;2.80;;;;;;;13.31;53.96;94609.81;5145474;27;20018;-85
2023/10/02 05:27:31;;;;;;;8.30;2.95;;;;;;;13.37;54.23;94620.06;5145669;27;20186;-85
2023/10/02 05:29:58;;;;;;;11.57;3.80;;;;;;;13.40;54.27;94622.13;5145766;27;20019;-85
2023/10/02 05:32:31;;;;;;;10.88;3.40;;;;;;;13.42;53.97;94627.16;5145610;27;20019;-85
2023/10/02 05:35:16;;;;;;;8.82;3.03;;;;;;;13.44;53.71;94625.75;5144173;27;20023;-85
2023/10/02 05:37:43;;;;;;;10.43;2.58;;;;;;;13.51;53.58;94635.22;5126681;27;20027;-85
2023/10/02 05:43:09;;;;;;;13.07;3.20;;;;;;;13.57;53.47;94639.31;5145398;27;20213;-85
2023/10/02 05:50:52;;;;;;;16.10;2.65;;;;;;;13.60;53.71;94638.72;5145134;27;20041;-86
2023/10/02 05:53:25;;;;;;;9.05;3.30;;;;;;;13.61;53.04;94637.59;5144950;27;20267;-86
2023/10/02 05:58:37;;;;;;;13.88;2.92;;;;;;;13.59;52.80;94643.25;5144843;27;20022;-86
2023/10/02 06:01:23;;;;;;;24.67;5.88;;;;;;;13.71;52.62;94637.28;5144855;27;20019;-85
2023/10/02 06:03:56;;;;;;;11.68;2.55;;;;;;;13.79;52.44;94636.50;5144835;27;20313;-85
2023/10/02 06:06:23;;;;;;;13.88;3.17;;;;;;;13.85;51.57;94629.91;5126416;27;20015;-84
2023/10/02 06:08:48;;;;;;;10.95;2.83;;;;;;;13.93;51.68;94636.38;5144520;27;20023;-85
2023/10/02 06:11:27;;;;;;;5.35;2.22;;;;;;;13.84;51.58;94636.38;5114752;28;20093;-85
2023/10/02 06:13:56;;;;;;;10.13;3.00;;;;;;;13.87;51.87;94644.88;5103672;28;20226;-85
2023/10/02 06:16:28;;;;;;;9.30;2.72;;;;;;;13.85;52.03;94643.28;5103563;28;20035;-85
2023/10/02 06:19:02;;;;;;;9.32;2.75;;;;;;;13.85;51.01;94640.63;5103617;28;20224;-85
2023/10/02 06:21:45;;;;;;;;;;;;;;;13.91;51.44;94649.28;5104212;28;20031;-85
2023/10/02 06:24:18;;;;;;;12.32;2.78;;;;;;;13.92;51.88;94642.03;5119238;28;20107;-85
2023/10/02 06:26:53;;;;;;;9.40;3.03;;;;;;;13.93;51.85;94646.31;5103346;28;20310;-85
2023/10/02 06:29:25;;;;;;;6.85;2.97;;;;;;;13.95;51.51;94660.97;5103533;28;20066;-85
2023/10/02 06:32:19;;;;;;;10.45;3.20;;;;;;;14.00;51.77;94662.69;5103377;28;20070;-85
2023/10/02 06:34:44;;;;;;;9.27;3.30;;;;;;;13.96;51.83;94656.38;5102879;28;20024;-86
2023/10/02 06:37:35;;;;;;;12.30;2.90;;;;;;;13.98;52.62;94667.56;5103680;28;20031;-86
2023/10/02 06:40:06;;;;;;;12.00;2.77;;;;;;;14.02;51.94;94657.81;5103547;28;20027;-85
2023/10/02 06:42:33;;;;;;;12.43;3.33;;;;;;;14.07;51.50;94676.44;5103268;28;20057;-85
2023/10/02 06:45:02;;;;;;;9.93;2.90;;;;;;;14.16;51.97;94666.47;5102338;28;20023;-88
2023/10/02 06:47:29;;;;;;;13.70;3.30;;;;;;;14.30;52.46;94662.84;5103322;28;20181;-85
2023/10/02 06:52:41;;;;;;;8.65;2.42;;;;;;;14.37;51.50;94671.19;5103024;28;20026;-74
2023/10/02 06:55:07;;;;;;;6.60;3.00;;;;;;;14.38;50.78;94689.66;5102666;28;20038;-73
2023/10/02 06:57:36;;;;;;;9.32;2.65;;;;;;;14.37;51.20;94680.06;5102832;28;20055;-72
2023/10/02 07:00:04;;;;;;;9.27;2.58;;;;;;;14.36;51.40;94675.78;5102914;28;20243;-72
2023/10/02 07:02:31;;;;;;;8.40;2.53;;;;;;;14.32;51.36;94688.25;5102577;28;20024;-72
2023/10/02 07:04:57;;;;;;;8.85;3.58;;;;;;;14.33;51.86;94686.34;5103058;28;20079;-72
2023/10/02 07:07:25;;;;;;;11.55;2.92;;;;;;;14.27;51.79;94693.78;5102863;28;20039;-72
2023/10/02 07:09:55;;;;;;;14.65;3.08;;;;;;;14.16;52.17;94697.88;5102749;28;20210;-72
2023/10/02 07:12:27;;;;;;;10.00;3.17;;;;;;;14.14;53.05;94694.72;5137609;28;20030;-71
2023/10/02 07:15:10;;;;;;;6.35;2.60;;;;;;;14.14;53.36;94679.41;5143811;27;20111;-72
2023/10/02 07:17:47;;;;;;;11.43;3.10;;;;;;;14.05;53.20;94679.41;5143683;27;20066;-72
2023/10/02 07:20:13;;;;;;;7.45;3.13;;;;;;;14.07;54.06;94681.78;5125324;28;20077;-72
2023/10/02 07:22:40;;;;;;;7.88;2.75;;;;;;;14.05;53.87;94682.09;5143666;27;20305;-72
2023/10/02 07:25:08;;;;;;;8.05;2.88;;;;;;;14.01;53.51;94696.44;5125372;28;20023;-71
2023/10/02 07:27:34;;;;;;;6.93;3.05;;;;;;;14.08;54.67;94691.38;5143579;28;20023;-71
2023/10/02 07:30:01;;;;;;;13.63;3.05;;;;;;;14.25;53.90;94678.00;5125234;28;20042;-72
2023/10/02 07:32:31;;;;;;;10.30;3.92;;;;;;;14.36;52.96;94681.16;5143646;27;20026;-72
2023/10/02 07:35:09;;;;;;;14.30;3.38;;;;;;;14.48;53.34;94677.84;5143833;27;20088;-72
2023/10/02 07:37:35;;;;;;;7.55;2.88;;;;;;;14.59;52.68;94671.06;5143383;28;20031;-72
2023/10/02 07:40:02;;;;;;;11.55;3.40;;;;;;;14.73;52.14;94683.50;5125138;28;20038;-72
2023/10/02 07:42:29;;;;;;;11.45;3.40;;;;;;;14.79;51.53;94680.31;5143532;27;20221;-71
2023/10/02 07:45:11;;;;;;;7.65;3.05;;;;;;;14.82;50.83;94690.44;5143597;27;20022;-72
2023/10/02 07:48:07;;;;;;;13.13;3.50;;;;;;;14.94;51.29;94683.59;5143220;28;20026;-71
2023/10/02 07:50:35;;;;;;;9.32;2.67;;;;;;;15.08;50.85;94688.78;5143531;27;20152;-72
2023/10/02 07:53:06;;;;;;;14.70;3.72;;;;;;;15.16;50.33;94685.28;5143370;27;20037;-73
2023/10/02 07:55:46;;;;;;;9.30;2.65;;;;;;;15.16;49.88;94698.69;5143360;27;20051;-73
2023/10/02 07:58:13;;;;;;;6.65;2.92;;;;;;;15.18;49.95;94707.22;5143225;27;20038;-73
2023/10/02 08:00:42;;;;;;;11.98;3.10;;;;;;;15.25;49.65;94694.09;5143741;27;20030;-72
2023/10/02 08:05:56;;;;;;;11.00;3.22;;;;;;;15.39;50.43;94688.53;5146854;27;20030;-73
2023/10/02 08:08:33;;;;;;;11.45;3.28;;;;;;;15.40;49.39;94706.97;5146745;27;20048;-72
2023/10/02 08:11:02;;;;;;;11.05;3.70;;;;;;;15.45;49.91;94687.22;5146789;27;20338;-72
2023/10/02 08:13:35;;;;;;;11.38;3.25;;;;;;;15.41;49.23;94692.44;5146623;27;20187;-73
2023/10/02 08:16:08;;;;;;;19.27;3.90;;;;;;;15.48;49.89;94694.63;5128574;27;20030;-73
2023/10/02 08:18:55;;;;;;;7.68;3.15;;;;;;;15.53;49.42;94678.34;5146777;27;20022;-72
2023/10/02 08:21:24;;;;;;;14.52;3.40;;;;;;;15.64;50.67;94701.03;5146385;27;20063;-72
2023/10/02 08:23:52;;;;;;;12.13;3.22;;;;;;;15.72;50.11;94693.25;5146618;27;20096;-72
2023/10/02 08:26:18;;;;;;;10.60;3.65;;;;;;;15.71;49.73;94684.38;5146378;27;20031;-71
2023/10/02 08:28:45;;;;;;;11.32;4.00;;;;;;;15.80;49.54;94698.59;5146725;27;20094;-71
2023/10/02 08:31:13;;;;;;;9.23;3.78;;;;;;;15.82;49.84;94690.22;5128037;27;20030;-71
2023/10/02 08:33:43;;;;;;;7.28;2.95;;;;;;;15.98;49.83;94693.13;5146131;27;20019;-71
2023/10/02 08:36:09;;;;;;;12.35;3.28;;;;;;;15.99;49.33;94694.69;5127986;27;20023;-72
2023/10/02 08:38:40;;;;;;;16.77;3.72;;;;;;;15.94;48.27;94708.34;5146349;27;20027;-72
2023/10/02 08:41:08;;;;;;;8.73;3.65;;;;;;;15.93;48.48;94706.75;5146128;27;20062;-72
2023/10/02 08:43:41;;;;;;;14.30;3.30;;;;;;;15.85;48.15;94700.31;5146478;27;20103;-73
2023/10/02 08:46:07;;;;;;;15.18;4.10;;;;;;;15.87;47.85;94698.09;5146498;27;20046;-72
2023/10/02 08:48:34;;;;;;;10.25;3.67;;;;;;;15.84;47.77;94694.16;5145900;27;20322;-73
2023/10/02 08:50:59;;;;;;;8.20;3.40;;;;;;;15.86;48.83;94685.00;5127634;27;20131;-72
2023/10/02 08:53:26;;;;;;;10.52;3.25;;;;;;;15.86;48.67;94690.38;5146185;27;20030;-72
2023/10/02 08:56:23;;;;;;;7.50;3.20;;;;;;;15.81;49.35;94678.69;5146215;27;20034;-72
2023/10/02 09:01:33;;;;;;;9.48;3.35;;;;;;;15.94;49.50;94692.22;5145964;27;20045;-72
2023/10/02 09:06:44;;;;;;;14.77;3.80;;;;;;;16.00;49.46;94680.16;5145766;27;20072;-71
2023/10/02 09:11:53;;;;;;;10.68;4.15;;;;;;;16.11;49.47;94670.56;5145215;27;20108;-73
2023/10/02 09:16:47;;;;;;;14.13;3.90;;;;;;;16.32;47.53;94675.94;5145785;27;20038;-71
2023/10/02 09:19:30;;;;;;;18.65;4.22;;;;;;;16.36;46.98;94671.47;5126936;27;20023;-71
2023/10/02 09:22:06;;;;;;;10.35;3.50;;;;;;;16.39;46.96;94667.34;5145436;27;20035;-72
2023/10/02 09:24:38;;;;;;;12.48;3.92;;;;;;;16.42;47.00;94675.56;5145569;27;20023;-72
2023/10/02 09:27:23;;;;;;;9.95;3.75;;;;;;;16.54;47.06;94680.19;5145782;27;20042;-75
2023/10/02 09:32:47;;;;;;;17.10;4.13;;;;;;;16.72;45.79;94677.34;5145310;27;20072;-73
2023/10/02 09:35:30;;;;;;;17.05;4.60;;;;;;;16.70;45.70;94712.66;5145104;27;20019;-74
2023/10/02 09:38:04;;;;;;;;;;;;;;;16.72;45.64;94682.72;5127455;27;20344;-73
2023/10/02 09:43:35;;;;;;;13.00;3.47;;;;;;;16.69;45.57;94677.97;5144871;27;20026;-78
2023/10/02 09:46:06;;;;;;;11.88;3.72;;;;;;;16.71;46.25;94691.91;5144438;27;20019;-82
2023/10/02 09:48:53;;;;;;;10.07;3.92;;;;;;;16.64;45.68;94681.69;5125058;27;20203;-81
2023/10/02 09:51:30;;;;;;;11.05;4.10;;;;;;;16.80;45.95;94658.41;5143293;27;20023;-82
2023/10/02 09:54:17;;;;;;;10.13;4.03;;;;;;;16.95;44.56;94686.59;5126492;27;20023;-82
2023/10/02 09:57:04;;;;;;;9.43;3.53;;;;;;;16.98;44.17;94688.66;5144583;27;20125;-82
2023/10/02 09:59:46;;;;;;;11.35;3.45;;;;;;;17.03;44.31;94661.50;5143727;27;20038;-82
2023/10/02 10:10:47;;;;;;;14.70;3.80;;;;;;;17.40;42.65;94685.00;5142278;27;20219;-83
2023/10/02 10:13:32;;;;;;;9.93;3.75;;;;;;;17.49;42.03;94672.22;5141867;27;20039;-81
2023/10/02 10:16:19;;;;;;;10.90;4.20;;;;;;;17.53;41.74;94670.41;5142676;27;20259;-81
2023/10/02 10:21:56;;;;;;;12.32;4.13;;;;;;;17.70;40.71;94660.53;5144541;27;20065;-82
2023/10/02 10:25:22;;;;;;;7.88;3.65;;;;;;;17.74;40.31;94670.28;5144283;27;20019;-82
2023/10/02 10:30:47;;;;;;;13.20;3.75;;;;;;;17.80;40.54;94652.75;5144411;27;20022;-82
2023/10/02 10:33:19;;;;;;;8.98;4.28;;;;;;;17.88;38.24;94655.72;5144201;27;20090;-82
2023/10/02 10:35:55;;;;;;;7.75;3.55;;;;;;;17.95;38.82;94651.31;5144170;27;20029;-82
2023/10/02 10:38:29;;;;;;;16.08;4.50;;;;;;;18.05;39.74;94655.44;5144116;27;20030;-81
2023/10/02 10:41:05;;;;;;;8.73;3.38;;;;;;;18.08;39.83;94643.19;5144375;27;20326;-82
2023/10/02 10:46:19;;;;;;;10.02;3.72;;;;;;;18.10;38.11;94630.16;5144180;27;20061;-81
2023/10/02 10:48:53;;;;;;;8.07;3.72;;;;;;;18.17;36.45;94635.75;5144003;27;20026;-80
2023/10/02 10:51:22;;;;;;;13.50;4.70;;;;;;;18.21;36.17;94631.22;5125716;27;20075;-81
2023/10/02 10:53:52;;;;;;;14.63;4.78;;;;;;;18.24;35.17;94634.03;5144096;27;20196;-81
2023/10/02 10:56:19;;;;;;;12.25;4.20;;;;;;;18.35;35.18;94626.22;5143794;28;20107;-81
2023/10/02 10:58:47;;;;;;;13.98;4.70;;;;;;;18.36;37.34;94627.00;5143689;27;20305;-85
2023/10/02 11:01:16;;;;;;;13.60;4.40;;;;;;;18.41;37.25;94629.47;5142840;28;20076;-81
2023/10/02 11:03:58;;;;;;;8.07;3.58;;;;;;;18.48;36.16;94615.38;5144004;27;20082;-86
2023/10/02 11:09:41;;;;;;;;;;;;;;;;;;;;;
2023/10/02 11:12:16;;;;;;;11.23;4.03;;;;;;;18.63;37.74;94618.13;5144406;27;20077;-88
2023/10/02 11:14:51;;;;;;;12.48;3.50;;;;;;;18.81;37.86;94613.22;5125634;28;20047;-88
2023/10/02 11:17:57;;;;;;;10.80;3.70;;;;;;;18.97;36.17;94617.84;5145261;27;20030;-92
2023/10/02 11:21:33;;;;;;;;;;;;;;;;;;;;;
2023/10/02 11:24:22;;;;;;;15.73;4.05;;;;;;;19.15;37.60;94602.06;5092851;27;20053;-88
2023/10/02 11:27:29;;;;;;;14.05;4.47;;;;;;;19.29;37.16;94597.00;5149468;28;20188;-91
2023/10/02 11:35:41;;;;;;;19.60;4.63;;;;;;;19.50;36.97;94594.03;5433050;22;20422;-90
2023/10/02 11:38:09;;;;;;;10.88;4.25;;;;;;;19.62;37.55;94598.53;5514234;23;20058;-85
2023/10/02 11:44:35;;;;;;;6.97;3.33;;;;;;;19.68;37.44;94602.53;4948053;29;20075;-91
2023/10/02 11:59:08;;;;;;;16.20;5.63;;;;;;;20.18;37.78;94595.50;4873251;29;20104;-90
2023/10/02 12:01:40;;;;;;;;;;;;;;;;;;;;;
2023/10/02 12:04:46;;;;;;;9.35;4.50;;;;;;;20.18;37.23;94603.63;4927311;29;20058;-89
2023/10/02 12:07:48;;;;;;;;;;;;;;;;;;;;;
2023/10/02 12:10:51;;;;;;;;;;;;;;;;;;;;;
2023/10/02 12:13:32;;;;;;;10.98;4.45;;;;;;;20.32;37.00;94586.88;4914728;29;20068;-92
2023/10/02 12:15:58;;;;;;;10.30;4.28;;;;;;;20.31;37.14;94587.25;4915892;28;20032;-88
2023/10/02 12:18:35;;;;;;;14.48;4.50;;;;;;;20.22;37.54;94585.53;5015106;28;20083;-86
2023/10/02 12:21:00;;;;;;;12.07;4.50;;;;;;;20.24;37.64;94579.75;5023322;28;20244;-82
2023/10/02 12:23:28;;;;;;;8.43;3.92;;;;;;;20.35;37.30;94588.09;5025712;28;20029;-83
2023/10/02 12:25:55;;;;;;;12.18;4.63;;;;;;;20.59;37.82;94589.72;5026114;28;20316;-84
2023/10/02 12:28:36;;;;;;;14.75;4.68;;;;;;;20.55;36.40;94581.50;5024903;28;20030;-87
2023/10/02 12:31:15;;;;;;;10.88;4.05;;;;;;;20.43;37.40;94587.09;5025890;28;20021;-87
2023/10/02 12:33:47;;;;;;;13.57;5.13;;;;;;;20.46;37.71;94570.13;5025398;28;20017;-84
2023/10/02 12:36:19;;;;;;;11.80;4.40;;;;;;;20.52;37.74;94573.34;5025485;28;20033;-85
2023/10/02 12:38:49;;;;;;;8.90;4.43;;;;;;;20.60;37.78;94575.06;5024366;28;20056;-83
2023/10/02 12:41:17;;;;;;;10.68;4.03;;;;;;;20.81;36.20;94571.94;5025594;28;20304;-84
2023/10/02 12:43:44;;;;;;;9.50;4.45;;;;;;;20.87;36.01;94567.78;5025689;28;20018;-89
2023/10/02 12:46:20;;;;;;;11.82;4.47;;;;;;;21.22;37.22;94564.09;5025814;28;20014;-90
2023/10/02 12:48:48;;;;;;;12.07;4.35;;;;;;;21.21;35.32;94560.59;5024871;28;20371;-90
2023/10/02 12:51:15;;;;;;;9.45;4.30;;;;;;;21.16;35.50;94554.72;5025195;28;20033;-89
2023/10/02 12:53:45;;;;;;;13.85;4.38;;;;;;;21.13;36.04;94571.72;5026471;28;20025;-90
2023/10/02 12:56:35;;;;;;;10.60;3.95;;;;;;;21.09;36.17;94566.22;5024265;28;20034;-86
2023/10/02 12:59:01;;;;;;;10.65;3.85;;;;;;;20.89;36.46;94564.72;5025296;28;20378;-87
2023/10/02 13:01:27;;;;;;;19.10;5.75;;;;;;;20.70;36.84;94570.97;5024346;28;20070;-85
2023/10/02 13:03:59;;;;;;;14.70;5.00;;;;;;;20.64;36.62;94563.16;5024803;28;20014;-88
2023/10/02 13:06:26;;;;;;;13.27;5.20;;;;;;;20.61;36.67;94573.91;5025370;28;20025;-86
2023/10/02 13:09:10;;;;;;;13.98;4.65;;;;;;;20.63;36.54;94566.97;5024980;28;20028;-86
2023/10/02 13:11:40;;;;;;;20.10;4.93;;;;;;;20.68;36.56;94565.13;5024930;28;20049;-82
2023/10/02 13:14:12;;;;;;;15.10;5.00;;;;;;;20.57;36.46;94568.41;5023434;28;20100;-81
2023/10/02 13:16:45;;;;;;;10.90;4.47;;;;;;;20.52;36.59;94574.13;5023221;28;20025;-81
2023/10/02 13:19:11;;;;;;;10.35;4.55;;;;;;;20.44;36.93;94561.59;5024508;28;20093;-81
2023/10/02 13:21:38;;;;;;;13.55;4.55;;;;;;;20.41;37.00;94567.72;5024385;28;20093;-81
2023/10/02 13:24:14;;;;;;;10.65;4.25;;;;;;;20.33;37.64;94563.28;5024826;28;20068;-86
2023/10/02 13:26:40;;;;;;;10.90;4.22;;;;;;;20.33;38.27;94571.41;5026715;28;20068;-87
2023/10/02 13:29:11;;;;;;;9.40;4.30;;;;;;;20.45;37.64;94565.84;5024036;28;20032;-87
2023/10/02 13:31:39;;;;;;;9.43;4.45;;;;;;;20.75;37.09;94555.19;5024186;28;20220;-84
2023/10/02 13:34:05;;;;;;;8.07;3.92;;;;;;;21.10;36.40;94553.44;5024865;28;20312;-87
2023/10/02 13:36:39;;;;;;;10.60;4.10;;;;;;;21.23;35.33;94546.69;5026680;28;20093;-89
2023/10/02 13:39:05;;;;;;;10.75;3.67;;;;;;;21.10;35.59;94543.38;5027514;28;20163;-89
2023/10/02 13:41:31;;;;;;;11.30;4.38;;;;;;;21.12;35.80;94551.16;5027144;28;20026;-88
2023/10/02 13:43:59;;;;;;;9.68;3.95;;;;;;;21.42;35.17;94543.09;5025719;28;20048;-86
2023/10/02 13:46:38;;;;;;;8.23;3.92;;;;;;;21.87;34.89;94546.06;5028640;28;20316;-89
2023/10/02 13:49:05;;;;;;;11.20;4.13;;;;;;;21.94;34.38;94551.56;5027543;28;20049;-84
2023/10/02 13:51:31;;;;;;;14.63;4.95;;;;;;;21.64;34.36;94550.41;5039452;28;20309;-83
2023/10/02 13:54:01;;;;;;;11.80;3.50;;;;;;;21.31;35.22;94561.13;5025450;28;20029;-91
2023/10/02 13:56:27;;;;;;;9.45;4.10;;;;;;;21.20;35.88;94552.84;5023162;28;20034;-87
2023/10/02 13:58:53;;;;;;;10.30;4.85;;;;;;;20.94;36.03;94559.00;5024527;28;20048;-84
2023/10/02 14:01:21;;;;;;;16.13;4.82;;;;;;;20.75;36.44;94555.19;5024147;28;20096;-85